sensor_id;sensor_type;location;lat;lon;timestamp;pressure;altitude;pressure_sealevel;temperature;humidity
11343;BME280;5726;42.160;24.746;2023-01-29T00:00:50;99728.81;;;5.42;90.67
11343;BME280;5726;42.160;24.746;2023-01-29T00:03:15;99733.44;;;5.52;89.73
11343;BME280;5726;42.160;24.746;2023-01-29T00:05:41;99726.22;;;5.47;90.28
11343;BME280;5726;42.160;24.746;2023-01-29T00:08:06;99725.25;;;5.32;90.52
11343;BME280;5726;42.160;24.746;2023-01-29T00:10:32;99727.22;;;5.41;90.25
11343;BME280;5726;42.160;24.746;2023-01-29T00:12:57;99727.75;;;5.43;90.46
11343;BME280;5726;42.160;24.746;2023-01-29T00:15:23;99736.00;;;5.42;90.01
11343;BME280;5726;42.160;24.746;2023-01-29T00:17:48;99737.56;;;5.64;89.33
11343;BME280;5726;42.160;24.746;2023-01-29T00:20:14;99738.03;;;5.35;90.62
11343;BME280;5726;42.160;24.746;2023-01-29T00:22:40;99748.00;;;5.44;89.95
11343;BME280;5726;42.160;24.746;2023-01-29T00:25:06;99746.34;;;5.38;89.89
11343;BME280;5726;42.160;24.746;2023-01-29T00:27:31;99746.88;;;5.40;90.33
11343;BME280;5726;42.160;24.746;2023-01-29T00:29:57;99754.31;;;5.38;90.16
11343;BME280;5726;42.160;24.746;2023-01-29T00:32:38;99748.31;;;5.26;90.82
11343;BME280;5726;42.160;24.746;2023-01-29T00:35:03;99767.84;;;5.63;89.61
11343;BME280;5726;42.160;24.746;2023-01-29T00:37:29;99761.81;;;5.46;89.96
11343;BME280;5726;42.160;24.746;2023-01-29T00:39:55;99758.16;;;5.52;90.42
11343;BME280;5726;42.160;24.746;2023-01-29T00:42:20;99758.13;;;5.47;89.97
11343;BME280;5726;42.160;24.746;2023-01-29T00:45:05;99755.50;;;5.52;89.99
11343;BME280;5726;42.160;24.746;2023-01-29T00:47:30;99768.94;;;5.41;91.04
11343;BME280;5726;42.160;24.746;2023-01-29T00:50:00;99767.22;;;5.30;90.72
11343;BME280;5726;42.160;24.746;2023-01-29T00:52:26;99768.69;;;5.42;90.36
11343;BME280;5726;42.160;24.746;2023-01-29T00:54:53;99762.19;;;5.55;89.49
11343;BME280;5726;42.160;24.746;2023-01-29T00:57:19;99765.28;;;5.47;89.90
11343;BME280;5726;42.160;24.746;2023-01-29T00:59:44;99764.84;;;5.33;90.20
11343;BME280;5726;42.160;24.746;2023-01-29T01:02:10;99765.50;;;5.19;90.54
11343;BME280;5726;42.160;24.746;2023-01-29T01:04:54;99761.03;;;5.24;90.65
11343;BME280;5726;42.160;24.746;2023-01-29T01:07:19;99758.06;;;5.21;90.47
11343;BME280;5726;42.160;24.746;2023-01-29T01:09:45;99758.88;;;5.21;90.63
11343;BME280;5726;42.160;24.746;2023-01-29T01:12:29;99763.50;;;5.10;91.79
11343;BME280;5726;42.160;24.746;2023-01-29T01:14:54;99761.47;;;5.17;91.35
11343;BME280;5726;42.160;24.746;2023-01-29T01:17:20;99765.63;;;5.08;91.76
11343;BME280;5726;42.160;24.746;2023-01-29T01:19:46;99767.28;;;5.14;92.27
11343;BME280;5726;42.160;24.746;2023-01-29T01:22:11;99765.44;;;5.35;90.94
11343;BME280;5726;42.160;24.746;2023-01-29T01:24:37;99766.28;;;5.20;91.74
11343;BME280;5726;42.160;24.746;2023-01-29T01:27:03;99767.66;;;5.43;90.94
11343;BME280;5726;42.160;24.746;2023-01-29T01:29:29;99766.78;;;5.17;91.75
11343;BME280;5726;42.160;24.746;2023-01-29T01:31:54;99767.28;;;5.14;92.58
11343;BME280;5726;42.160;24.746;2023-01-29T01:34:20;99772.84;;;5.33;91.44
11343;BME280;5726;42.160;24.746;2023-01-29T01:36:46;99765.66;;;5.13;92.77
11343;BME280;5726;42.160;24.746;2023-01-29T01:39:12;99766.84;;;5.21;91.55
11343;BME280;5726;42.160;24.746;2023-01-29T01:41:37;99760.66;;;5.37;91.34
11343;BME280;5726;42.160;24.746;2023-01-29T01:44:04;99765.84;;;5.49;91.09
11343;BME280;5726;42.160;24.746;2023-01-29T01:46:33;99772.66;;;5.40;90.95
11343;BME280;5726;42.160;24.746;2023-01-29T01:51:32;99769.84;;;5.51;90.84
11343;BME280;5726;42.160;24.746;2023-01-29T01:54:06;99764.31;;;5.31;91.00
11343;BME280;5726;42.160;24.746;2023-01-29T01:56:39;99755.31;;;5.32;90.86
11343;BME280;5726;42.160;24.746;2023-01-29T01:59:16;99765.94;;;5.32;91.25
11343;BME280;5726;42.160;24.746;2023-01-29T02:01:46;99772.41;;;5.20;91.92
11343;BME280;5726;42.160;24.746;2023-01-29T02:04:16;99770.63;;;5.25;92.39
11343;BME280;5726;42.160;24.746;2023-01-29T02:07:03;99771.91;;;5.02;93.21
11343;BME280;5726;42.160;24.746;2023-01-29T02:09:52;99769.59;;;5.26;92.44
11343;BME280;5726;42.160;24.746;2023-01-29T02:12:21;99768.91;;;5.15;92.80
11343;BME280;5726;42.160;24.746;2023-01-29T02:14:47;99773.66;;;5.13;93.70
11343;BME280;5726;42.160;24.746;2023-01-29T02:17:15;99775.56;;;5.38;92.32
11343;BME280;5726;42.160;24.746;2023-01-29T02:41:30;99802.88;;;5.55;93.43
11343;BME280;5726;42.160;24.746;2023-01-29T02:44:18;99802.88;;;5.55;92.32
11343;BME280;5726;42.160;24.746;2023-01-29T02:47:00;99796.00;;;5.80;91.85
11343;BME280;5726;42.160;24.746;2023-01-29T02:57:21;99799.69;;;5.53;92.50
11343;BME280;5726;42.160;24.746;2023-01-29T02:59:57;99801.63;;;5.63;92.76
11343;BME280;5726;42.160;24.746;2023-01-29T03:05:27;99807.19;;;5.82;92.26
11343;BME280;5726;42.160;24.746;2023-01-29T03:07:58;99807.81;;;5.68;93.10
11343;BME280;5726;42.160;24.746;2023-01-29T03:13:25;99807.97;;;5.35;95.95
11343;BME280;5726;42.160;24.746;2023-01-29T03:18:41;99814.63;;;5.59;93.88
11343;BME280;5726;42.160;24.746;2023-01-29T03:21:17;99824.41;;;5.75;93.02
11343;BME280;5726;42.160;24.746;2023-01-29T03:24:03;99817.53;;;5.58;92.54
11343;BME280;5726;42.160;24.746;2023-01-29T03:26:48;99822.00;;;5.31;94.40
11343;BME280;5726;42.160;24.746;2023-01-29T03:29:33;99825.50;;;5.36;93.60
11343;BME280;5726;42.160;24.746;2023-01-29T03:32:20;99820.28;;;5.41;93.83
11343;BME280;5726;42.160;24.746;2023-01-29T03:34:52;99825.56;;;5.20;94.88
11343;BME280;5726;42.160;24.746;2023-01-29T03:37:25;99820.09;;;5.26;94.71
11343;BME280;5726;42.160;24.746;2023-01-29T03:39:52;99825.88;;;5.23;94.89
11343;BME280;5726;42.160;24.746;2023-01-29T03:43:10;99831.31;;;5.33;93.47
11343;BME280;5726;42.160;24.746;2023-01-29T03:53:27;99828.75;;;5.38;94.17
11343;BME280;5726;42.160;24.746;2023-01-29T03:55:59;99836.91;;;5.53;93.84
11343;BME280;5726;42.160;24.746;2023-01-29T03:58:41;99844.34;;;5.35;93.79
11343;BME280;5726;42.160;24.746;2023-01-29T04:03:36;99846.75;;;4.94;97.04
11343;BME280;5726;42.160;24.746;2023-01-29T04:06:15;99843.84;;;4.79;98.67
11343;BME280;5726;42.160;24.746;2023-01-29T04:08:54;99857.19;;;4.84;98.17
11343;BME280;5726;42.160;24.746;2023-01-29T04:11:23;99845.56;;;5.06;97.19
11343;BME280;5726;42.160;24.746;2023-01-29T04:13:51;99857.03;;;5.07;97.24
11343;BME280;5726;42.160;24.746;2023-01-29T04:16:21;99860.00;;;5.10;97.98
11343;BME280;5726;42.160;24.746;2023-01-29T04:18:48;99865.53;;;5.09;98.01
11343;BME280;5726;42.160;24.746;2023-01-29T04:21:14;99861.19;;;5.19;97.77
11343;BME280;5726;42.160;24.746;2023-01-29T04:23:40;99866.59;;;5.08;98.34
11343;BME280;5726;42.160;24.746;2023-01-29T04:31:32;99877.69;;;5.05;98.60
11343;BME280;5726;42.160;24.746;2023-01-29T04:34:12;99879.44;;;5.16;98.47
11343;BME280;5726;42.160;24.746;2023-01-29T04:37:04;99875.25;;;5.20;97.84
11343;BME280;5726;42.160;24.746;2023-01-29T04:42:30;99875.31;;;5.24;98.68
11343;BME280;5726;42.160;24.746;2023-01-29T04:45:19;99882.66;;;4.96;100.00
11343;BME280;5726;42.160;24.746;2023-01-29T04:50:37;99879.75;;;4.98;100.00
11343;BME280;5726;42.160;24.746;2023-01-29T04:53:27;99882.97;;;4.83;100.00
11343;BME280;5726;42.160;24.746;2023-01-29T04:56:10;99885.19;;;5.08;100.00
11343;BME280;5726;42.160;24.746;2023-01-29T04:58:41;99889.41;;;5.04;100.00
11343;BME280;5726;42.160;24.746;2023-01-29T05:01:12;99885.00;;;5.14;100.00
11343;BME280;5726;42.160;24.746;2023-01-29T05:03:40;99891.22;;;5.20;100.00
11343;BME280;5726;42.160;24.746;2023-01-29T05:06:08;99891.63;;;5.12;100.00
11343;BME280;5726;42.160;24.746;2023-01-29T05:08:36;99895.03;;;5.07;100.00
11343;BME280;5726;42.160;24.746;2023-01-29T05:11:03;99886.03;;;4.92;100.00
11343;BME280;5726;42.160;24.746;2023-01-29T05:13:30;99898.59;;;4.96;100.00
11343;BME280;5726;42.160;24.746;2023-01-29T05:16:07;99898.34;;;4.98;100.00
11343;BME280;5726;42.160;24.746;2023-01-29T05:18:34;99896.50;;;4.82;100.00
11343;BME280;5726;42.160;24.746;2023-01-29T05:21:04;99901.25;;;4.64;100.00
11343;BME280;5726;42.160;24.746;2023-01-29T05:23:31;99901.63;;;4.72;100.00
11343;BME280;5726;42.160;24.746;2023-01-29T05:25:56;99898.66;;;4.69;100.00
11343;BME280;5726;42.160;24.746;2023-01-29T05:28:22;99902.53;;;4.94;100.00
11343;BME280;5726;42.160;24.746;2023-01-29T05:30:53;99912.41;;;5.15;100.00
11343;BME280;5726;42.160;24.746;2023-01-29T05:33:24;99906.03;;;5.16;100.00
11343;BME280;5726;42.160;24.746;2023-01-29T05:35:50;99919.00;;;5.12;100.00
11343;BME280;5726;42.160;24.746;2023-01-29T05:38:16;99909.66;;;5.10;100.00
11343;BME280;5726;42.160;24.746;2023-01-29T05:40:42;99918.84;;;5.56;100.00
11343;BME280;5726;42.160;24.746;2023-01-29T05:43:14;99916.25;;;5.23;100.00
11343;BME280;5726;42.160;24.746;2023-01-29T05:45:40;99918.03;;;5.02;100.00
11343;BME280;5726;42.160;24.746;2023-01-29T05:48:06;99912.72;;;5.02;100.00
11343;BME280;5726;42.160;24.746;2023-01-29T05:50:31;99918.06;;;5.39;100.00
11343;BME280;5726;42.160;24.746;2023-01-29T05:53:00;99928.38;;;5.36;100.00
11343;BME280;5726;42.160;24.746;2023-01-29T05:55:27;99933.41;;;5.32;100.00
11343;BME280;5726;42.160;24.746;2023-01-29T05:57:54;99931.00;;;5.15;100.00
11343;BME280;5726;42.160;24.746;2023-01-29T06:00:19;99941.00;;;5.45;100.00
11343;BME280;5726;42.160;24.746;2023-01-29T06:02:45;99945.31;;;5.30;100.00
11343;BME280;5726;42.160;24.746;2023-01-29T06:05:10;99938.47;;;5.34;99.95
11343;BME280;5726;42.160;24.746;2023-01-29T06:07:36;99940.56;;;5.16;100.00
11343;BME280;5726;42.160;24.746;2023-01-29T06:10:02;99943.16;;;5.11;100.00
11343;BME280;5726;42.160;24.746;2023-01-29T06:12:28;99946.84;;;5.26;100.00
11343;BME280;5726;42.160;24.746;2023-01-29T06:14:53;99941.22;;;5.22;100.00
11343;BME280;5726;42.160;24.746;2023-01-29T06:17:19;99944.66;;;5.23;100.00
11343;BME280;5726;42.160;24.746;2023-01-29T06:19:45;99948.81;;;4.98;100.00
11343;BME280;5726;42.160;24.746;2023-01-29T06:22:10;99953.78;;;5.11;100.00
11343;BME280;5726;42.160;24.746;2023-01-29T06:24:36;99954.03;;;5.09;100.00
11343;BME280;5726;42.160;24.746;2023-01-29T06:27:01;99961.63;;;5.01;100.00
11343;BME280;5726;42.160;24.746;2023-01-29T06:29:27;99964.59;;;5.04;100.00
11343;BME280;5726;42.160;24.746;2023-01-29T06:31:52;99966.22;;;5.97;100.00
11343;BME280;5726;42.160;24.746;2023-01-29T06:34:17;99973.00;;;5.88;99.61
11343;BME280;5726;42.160;24.746;2023-01-29T06:36:43;99970.41;;;5.55;99.41
11343;BME280;5726;42.160;24.746;2023-01-29T06:39:10;99975.16;;;5.69;98.45
11343;BME280;5726;42.160;24.746;2023-01-29T06:41:35;99980.88;;;5.99;99.34
11343;BME280;5726;42.160;24.746;2023-01-29T06:44:01;99985.88;;;6.38;100.00
11343;BME280;5726;42.160;24.746;2023-01-29T06:46:26;99989.97;;;6.24;97.03
11343;BME280;5726;42.160;24.746;2023-01-29T06:48:51;99990.03;;;6.29;93.17
11343;BME280;5726;42.160;24.746;2023-01-29T06:51:17;99996.06;;;5.82;95.09
11343;BME280;5726;42.160;24.746;2023-01-29T06:53:42;99985.38;;;5.77;94.96
11343;BME280;5726;42.160;24.746;2023-01-29T06:56:08;99991.69;;;5.55;95.47
11343;BME280;5726;42.160;24.746;2023-01-29T06:58:37;99984.25;;;5.57;95.68
11343;BME280;5726;42.160;24.746;2023-01-29T07:01:07;99989.25;;;5.70;94.86
11343;BME280;5726;42.160;24.746;2023-01-29T07:03:33;99995.81;;;5.46;95.36
11343;BME280;5726;42.160;24.746;2023-01-29T07:05:58;99993.63;;;5.43;96.03
11343;BME280;5726;42.160;24.746;2023-01-29T07:08:24;99997.44;;;5.47;96.23
11343;BME280;5726;42.160;24.746;2023-01-29T07:10:50;100005.78;;;5.39;96.09
11343;BME280;5726;42.160;24.746;2023-01-29T07:13:15;100002.59;;;5.37;96.23
11343;BME280;5726;42.160;24.746;2023-01-29T07:15:41;100012.50;;;5.25;97.01
11343;BME280;5726;42.160;24.746;2023-01-29T07:18:07;100006.75;;;5.33;97.00
11343;BME280;5726;42.160;24.746;2023-01-29T07:20:41;100012.41;;;5.53;96.79
11343;BME280;5726;42.160;24.746;2023-01-29T07:23:11;100013.38;;;5.47;97.17
11343;BME280;5726;42.160;24.746;2023-01-29T07:25:37;100014.13;;;5.26;99.01
11343;BME280;5726;42.160;24.746;2023-01-29T07:28:03;100014.03;;;5.21;100.00
11343;BME280;5726;42.160;24.746;2023-01-29T07:30:28;100011.75;;;5.46;97.31
11343;BME280;5726;42.160;24.746;2023-01-29T07:32:54;100014.72;;;5.50;96.92
11343;BME280;5726;42.160;24.746;2023-01-29T07:35:20;100012.25;;;5.43;97.28
11343;BME280;5726;42.160;24.746;2023-01-29T07:37:49;100017.00;;;5.41;98.15
11343;BME280;5726;42.160;24.746;2023-01-29T07:40:15;100012.53;;;5.63;97.15
11343;BME280;5726;42.160;24.746;2023-01-29T07:42:40;100010.13;;;5.45;97.10
11343;BME280;5726;42.160;24.746;2023-01-29T07:45:08;100010.84;;;5.57;96.78
11343;BME280;5726;42.160;24.746;2023-01-29T07:47:38;100016.38;;;5.72;96.26
11343;BME280;5726;42.160;24.746;2023-01-29T07:50:04;100013.50;;;5.57;96.38
11343;BME280;5726;42.160;24.746;2023-01-29T07:52:32;100023.28;;;5.52;97.64
11343;BME280;5726;42.160;24.746;2023-01-29T07:54:57;100017.88;;;5.47;98.23
11343;BME280;5726;42.160;24.746;2023-01-29T07:57:23;100023.19;;;5.63;97.73
11343;BME280;5726;42.160;24.746;2023-01-29T07:59:49;100025.59;;;5.81;96.09
11343;BME280;5726;42.160;24.746;2023-01-29T08:06:04;100031.63;;;5.60;96.90
11343;BME280;5726;42.160;24.746;2023-01-29T08:08:34;100035.44;;;5.64;98.06
11343;BME280;5726;42.160;24.746;2023-01-29T08:11:27;100026.72;;;5.85;97.35
11343;BME280;5726;42.160;24.746;2023-01-29T08:13:53;100038.06;;;5.97;97.24
11343;BME280;5726;42.160;24.746;2023-01-29T08:16:19;100044.88;;;6.09;97.40
11343;BME280;5726;42.160;24.746;2023-01-29T08:18:44;100037.72;;;6.10;98.36
11343;BME280;5726;42.160;24.746;2023-01-29T08:21:12;100040.28;;;6.05;98.04
11343;BME280;5726;42.160;24.746;2023-01-29T08:23:38;100037.72;;;6.10;98.37
11343;BME280;5726;42.160;24.746;2023-01-29T08:26:04;100039.63;;;6.35;97.48
11343;BME280;5726;42.160;24.746;2023-01-29T08:28:29;100040.47;;;6.19;97.84
11343;BME280;5726;42.160;24.746;2023-01-29T08:30:55;100040.28;;;6.05;97.99
11343;BME280;5726;42.160;24.746;2023-01-29T08:33:21;100042.97;;;6.26;96.94
11343;BME280;5726;42.160;24.746;2023-01-29T08:35:49;100041.97;;;6.11;97.24
11343;BME280;5726;42.160;24.746;2023-01-29T08:38:15;100048.28;;;6.05;97.89
11343;BME280;5726;42.160;24.746;2023-01-29T08:40:41;100054.16;;;6.49;95.89
11343;BME280;5726;42.160;24.746;2023-01-29T08:43:07;100049.16;;;6.31;97.11
11343;BME280;5726;42.160;24.746;2023-01-29T08:45:34;100053.00;;;6.40;97.28
11343;BME280;5726;42.160;24.746;2023-01-29T08:48:00;100058.50;;;6.13;97.46
11343;BME280;5726;42.160;24.746;2023-01-29T08:50:25;100060.34;;;6.12;98.11
11343;BME280;5726;42.160;24.746;2023-01-29T08:52:56;100056.84;;;6.07;97.75
11343;BME280;5726;42.160;24.746;2023-01-29T08:55:22;100055.91;;;5.96;98.53
11343;BME280;5726;42.160;24.746;2023-01-29T08:57:47;100056.66;;;6.13;99.06
11343;BME280;5726;42.160;24.746;2023-01-29T09:00:13;100061.28;;;6.22;99.00
11343;BME280;5726;42.160;24.746;2023-01-29T09:02:39;100054.72;;;6.30;99.23
11343;BME280;5726;42.160;24.746;2023-01-29T09:05:05;100061.50;;;6.59;98.70
11343;BME280;5726;42.160;24.746;2023-01-29T09:07:30;100058.69;;;6.49;99.74
11343;BME280;5726;42.160;24.746;2023-01-29T09:09:56;100060.88;;;6.52;98.62
11343;BME280;5726;42.160;24.746;2023-01-29T09:12:22;100047.66;;;6.40;97.95
11343;BME280;5726;42.160;24.746;2023-01-29T09:14:47;100054.63;;;6.41;98.47
11343;BME280;5726;42.160;24.746;2023-01-29T09:17:12;100052.69;;;6.37;99.44
11343;BME280;5726;42.160;24.746;2023-01-29T09:19:38;100055.97;;;6.22;100.00
11343;BME280;5726;42.160;24.746;2023-01-29T09:22:03;100056.16;;;6.59;100.00
11343;BME280;5726;42.160;24.746;2023-01-29T09:24:29;100056.00;;;6.70;99.79
11343;BME280;5726;42.160;24.746;2023-01-29T09:26:54;100053.69;;;6.78;98.78
11343;BME280;5726;42.160;24.746;2023-01-29T09:29:20;100047.72;;;6.66;100.00
11343;BME280;5726;42.160;24.746;2023-01-29T09:31:45;100058.25;;;6.57;99.87
11343;BME280;5726;42.160;24.746;2023-01-29T09:34:10;100053.03;;;6.66;99.90
11343;BME280;5726;42.160;24.746;2023-01-29T09:36:36;100049.63;;;6.71;100.00
11343;BME280;5726;42.160;24.746;2023-01-29T09:39:01;100051.75;;;6.69;100.00
11343;BME280;5726;42.160;24.746;2023-01-29T09:46:55;100048.84;;;6.70;99.17
11343;BME280;5726;42.160;24.746;2023-01-29T09:49:28;100038.47;;;6.74;98.48
11343;BME280;5726;42.160;24.746;2023-01-29T09:52:33;100035.75;;;6.69;98.77
11343;BME280;5726;42.160;24.746;2023-01-29T09:55:13;100035.75;;;6.69;99.30
11343;BME280;5726;42.160;24.746;2023-01-29T09:57:57;100032.09;;;6.54;100.00
11343;BME280;5726;42.160;24.746;2023-01-29T10:00:28;100038.75;;;6.51;99.56
11343;BME280;5726;42.160;24.746;2023-01-29T10:05:57;100032.34;;;6.73;98.37
11343;BME280;5726;42.160;24.746;2023-01-29T10:09:32;100037.00;;;6.88;98.58
11343;BME280;5726;42.160;24.746;2023-01-29T10:12:00;100027.41;;;6.87;98.53
11343;BME280;5726;42.160;24.746;2023-01-29T10:17:58;100022.47;;;6.74;98.49
11343;BME280;5726;42.160;24.746;2023-01-29T10:25:54;100005.28;;;6.86;98.47
11343;BME280;5726;42.160;24.746;2023-01-29T10:30:54;100008.41;;;7.05;97.56
11343;BME280;5726;42.160;24.746;2023-01-29T10:33:37;99997.59;;;6.90;97.76
11343;BME280;5726;42.160;24.746;2023-01-29T10:36:07;99992.28;;;6.90;97.29
11343;BME280;5726;42.160;24.746;2023-01-29T10:38:42;99991.78;;;6.98;97.11
11343;BME280;5726;42.160;24.746;2023-01-29T10:41:30;99988.88;;;7.30;95.27
11343;BME280;5726;42.160;24.746;2023-01-29T10:53:32;99984.16;;;7.06;94.58
11343;BME280;5726;42.160;24.746;2023-01-29T10:56:31;99976.28;;;7.21;94.33
11343;BME280;5726;42.160;24.746;2023-01-29T10:59:26;99964.53;;;7.63;93.68
11343;BME280;5726;42.160;24.746;2023-01-29T11:01:58;99966.69;;;7.61;91.42
11343;BME280;5726;42.160;24.746;2023-01-29T11:04:25;99967.03;;;7.74;90.94
11343;BME280;5726;42.160;24.746;2023-01-29T11:06:52;99963.00;;;7.77;90.81
11343;BME280;5726;42.160;24.746;2023-01-29T11:09:38;99966.31;;;7.94;90.29
11343;BME280;5726;42.160;24.746;2023-01-29T11:12:19;99967.63;;;7.86;89.95
11343;BME280;5726;42.160;24.746;2023-01-29T11:17:29;99961.84;;;7.58;90.99
11343;BME280;5726;42.160;24.746;2023-01-29T11:19:55;99952.94;;;7.89;89.85
11343;BME280;5726;42.160;24.746;2023-01-29T11:22:28;99951.34;;;7.88;90.09
11343;BME280;5726;42.160;24.746;2023-01-29T11:25:17;99950.16;;;7.64;90.34
11343;BME280;5726;42.160;24.746;2023-01-29T11:27:48;99943.22;;;7.68;90.30
11343;BME280;5726;42.160;24.746;2023-01-29T11:30:26;99939.50;;;7.69;90.63
11343;BME280;5726;42.160;24.746;2023-01-29T11:33:24;99939.50;;;7.74;90.19
11343;BME280;5726;42.160;24.746;2023-01-29T11:35:50;99930.53;;;7.95;89.51
11343;BME280;5726;42.160;24.746;2023-01-29T11:38:27;99929.25;;;8.07;88.82
11343;BME280;5726;42.160;24.746;2023-01-29T11:41:09;99928.44;;;8.02;89.04
11343;BME280;5726;42.160;24.746;2023-01-29T11:43:38;99924.97;;;8.01;87.86
11343;BME280;5726;42.160;24.746;2023-01-29T11:46:06;99926.84;;;8.06;87.16
11343;BME280;5726;42.160;24.746;2023-01-29T11:51:09;99918.91;;;8.20;87.52
11343;BME280;5726;42.160;24.746;2023-01-29T11:53:42;99920.03;;;8.54;85.36
11343;BME280;5726;42.160;24.746;2023-01-29T11:58:55;99920.59;;;8.56;85.28
11343;BME280;5726;42.160;24.746;2023-01-29T12:01:48;99915.19;;;8.31;85.19
11343;BME280;5726;42.160;24.746;2023-01-29T12:04:20;99911.50;;;8.52;84.42
11343;BME280;5726;42.160;24.746;2023-01-29T12:06:48;99914.44;;;8.56;84.04
11343;BME280;5726;42.160;24.746;2023-01-29T12:09:19;99907.59;;;8.04;85.69
11343;BME280;5726;42.160;24.746;2023-01-29T12:11:46;99902.81;;;8.06;85.86
11343;BME280;5726;42.160;24.746;2023-01-29T12:14:28;99902.38;;;8.33;85.14
11343;BME280;5726;42.160;24.746;2023-01-29T12:17:21;99892.50;;;8.39;84.35
11343;BME280;5726;42.160;24.746;2023-01-29T12:19:55;99896.25;;;8.48;83.63
11343;BME280;5726;42.160;24.746;2023-01-29T12:25:15;99891.38;;;8.20;84.59
11343;BME280;5726;42.160;24.746;2023-01-29T12:27:57;99891.69;;;8.23;84.31
11343;BME280;5726;42.160;24.746;2023-01-29T12:31:10;99885.28;;;8.29;83.89
11343;BME280;5726;42.160;24.746;2023-01-29T12:33:40;99888.50;;;8.41;83.24
11343;BME280;5726;42.160;24.746;2023-01-29T12:36:33;99883.13;;;8.21;84.03
11343;BME280;5726;42.160;24.746;2023-01-29T12:39:02;99877.53;;;8.33;83.87
11343;BME280;5726;42.160;24.746;2023-01-29T12:41:37;99871.41;;;8.47;82.89
11343;BME280;5726;42.160;24.746;2023-01-29T12:44:49;99874.63;;;8.59;81.61
11343;BME280;5726;42.160;24.746;2023-01-29T12:47:30;99873.50;;;8.30;83.33
11343;BME280;5726;42.160;24.746;2023-01-29T12:50:02;99877.19;;;8.05;84.82
11343;BME280;5726;42.160;24.746;2023-01-29T12:55:06;99880.19;;;8.18;84.42
11343;BME280;5726;42.160;24.746;2023-01-29T13:00:23;99881.28;;;8.37;83.09
11343;BME280;5726;42.160;24.746;2023-01-29T13:02:59;99880.22;;;8.33;82.42
11343;BME280;5726;42.160;24.746;2023-01-29T13:05:29;99885.31;;;8.44;82.00
11343;BME280;5726;42.160;24.746;2023-01-29T13:08:07;99883.44;;;8.40;82.64
11343;BME280;5726;42.160;24.746;2023-01-29T13:10:37;99891.44;;;8.40;82.70
11343;BME280;5726;42.160;24.746;2023-01-29T13:13:13;99880.78;;;8.55;81.71
11343;BME280;5726;42.160;24.746;2023-01-29T13:15:41;99881.84;;;8.63;80.38
11343;BME280;5726;42.160;24.746;2023-01-29T13:20:49;99887.69;;;8.31;81.95
11343;BME280;5726;42.160;24.746;2023-01-29T13:23:21;99885.25;;;8.24;81.98
11343;BME280;5726;42.160;24.746;2023-01-29T13:25:51;99879.69;;;8.51;79.75
11343;BME280;5726;42.160;24.746;2023-01-29T13:28:18;99878.06;;;8.35;80.44
11343;BME280;5726;42.160;24.746;2023-01-29T13:30:44;99880.75;;;8.50;79.07
11343;BME280;5726;42.160;24.746;2023-01-29T13:33:21;99879.44;;;8.52;78.93
11343;BME280;5726;42.160;24.746;2023-01-29T13:35:47;99885.53;;;8.33;79.21
11343;BME280;5726;42.160;24.746;2023-01-29T13:38:30;99884.72;;;8.22;79.42
11343;BME280;5726;42.160;24.746;2023-01-29T13:41:05;99879.91;;;8.14;79.18
11343;BME280;5726;42.160;24.746;2023-01-29T13:43:41;99876.38;;;8.09;78.69
11343;BME280;5726;42.160;24.746;2023-01-29T13:46:15;99875.84;;;8.07;78.63
11343;BME280;5726;42.160;24.746;2023-01-29T13:48:45;99879.84;;;8.09;78.36
11343;BME280;5726;42.160;24.746;2023-01-29T13:51:16;99885.66;;;7.92;79.36
11343;BME280;5726;42.160;24.746;2023-01-29T13:53:56;99887.81;;;7.95;79.65
11343;BME280;5726;42.160;24.746;2023-01-29T13:56:40;99886.28;;;8.08;79.13
11343;BME280;5726;42.160;24.746;2023-01-29T13:59:23;99893.69;;;7.92;80.02
11343;BME280;5726;42.160;24.746;2023-01-29T14:06:52;99893.81;;;8.26;78.93
11343;BME280;5726;42.160;24.746;2023-01-29T14:12:35;99888.50;;;8.41;78.33
11343;BME280;5726;42.160;24.746;2023-01-29T14:15:13;99893.31;;;8.29;78.67
11343;BME280;5726;42.160;24.746;2023-01-29T14:17:53;99888.38;;;8.07;79.66
11343;BME280;5726;42.160;24.746;2023-01-29T14:20:23;99888.44;;;8.11;79.70
11343;BME280;5726;42.160;24.746;2023-01-29T14:22:56;99892.66;;;8.07;79.22
11343;BME280;5726;42.160;24.746;2023-01-29T14:25:29;99891.25;;;7.80;80.45
11343;BME280;5726;42.160;24.746;2023-01-29T14:27:57;99881.94;;;7.88;79.97
11343;BME280;5726;42.160;24.746;2023-01-29T14:30:25;99903.94;;;8.19;78.79
11343;BME280;5726;42.160;24.746;2023-01-29T14:32:52;99896.69;;;8.10;78.71
11343;BME280;5726;42.160;24.746;2023-01-29T14:35:23;99904.94;;;7.99;78.81
11343;BME280;5726;42.160;24.746;2023-01-29T14:37:52;99905.44;;;7.91;79.26
11343;BME280;5726;42.160;24.746;2023-01-29T14:40:24;99903.88;;;8.00;79.10
11343;BME280;5726;42.160;24.746;2023-01-29T14:43:04;99912.41;;;8.07;79.21
11343;BME280;5726;42.160;24.746;2023-01-29T14:45:35;99916.13;;;8.01;79.03
11343;BME280;5726;42.160;24.746;2023-01-29T14:55:47;99912.13;;;7.98;81.58
11343;BME280;5726;42.160;24.746;2023-01-29T14:58:22;99909.69;;;7.92;82.59
11343;BME280;5726;42.160;24.746;2023-01-29T15:00:52;99914.22;;;7.86;83.36
11343;BME280;5726;42.160;24.746;2023-01-29T15:05:51;99909.72;;;7.97;83.10
11343;BME280;5726;42.160;24.746;2023-01-29T15:09:28;99915.53;;;7.79;84.15
11343;BME280;5726;42.160;24.746;2023-01-29T15:11:30;99914.72;;;7.78;84.49
11343;BME280;5726;42.160;24.746;2023-01-29T15:14:23;99917.94;;;7.80;84.06
11343;BME280;5726;42.160;24.746;2023-01-29T15:16:58;99925.63;;;7.72;84.38
11343;BME280;5726;42.160;24.746;2023-01-29T15:19:26;99918.47;;;7.82;83.82
11343;BME280;5726;42.160;24.746;2023-01-29T15:22:06;99922.56;;;7.49;85.46
11343;BME280;5726;42.160;24.746;2023-01-29T15:24:33;99932.59;;;7.73;84.22
11343;BME280;5726;42.160;24.746;2023-01-29T15:26:59;99936.41;;;7.46;85.77
11343;BME280;5726;42.160;24.746;2023-01-29T15:29:26;99930.16;;;7.25;87.13
11343;BME280;5726;42.160;24.746;2023-01-29T15:31:53;99928.81;;;7.64;85.44
11343;BME280;5726;42.160;24.746;2023-01-29T15:34:19;99938.31;;;7.50;86.13
11343;BME280;5726;42.160;24.746;2023-01-29T15:36:46;99942.00;;;7.39;86.56
11343;BME280;5726;42.160;24.746;2023-01-29T15:39:21;99939.34;;;7.44;87.07
11343;BME280;5726;42.160;24.746;2023-01-29T15:41:48;99933.22;;;7.44;87.58